createdAt,value
2022-11-06T00:04:19.072Z,69.57
2022-11-06T00:09:22.604Z,69.64
2022-11-06T00:14:26.035Z,69.64
2022-11-06T00:19:29.505Z,69.87
2022-11-06T00:24:32.890Z,69.70
2022-11-06T00:29:36.290Z,69.70
2022-11-06T00:34:42.810Z,69.62
2022-11-06T00:39:46.292Z,69.73
2022-11-06T00:44:49.743Z,69.92
2022-11-06T00:49:53.246Z,70.04
2022-11-06T00:54:58.230Z,70.11
2022-11-06T01:00:01.570Z,70.27
2022-11-06T01:05:05.828Z,70.38
2022-11-06T01:10:09.752Z,70.39
2022-11-06T01:15:17.480Z,70.38
2022-11-06T01:20:26.851Z,70.36
2022-11-06T01:25:32.093Z,70.56
2022-11-06T01:30:39.088Z,70.58
2022-11-06T01:35:51.272Z,70.74
2022-11-06T01:40:55.163Z,70.62
2022-11-06T01:45:58.745Z,70.99
2022-11-06T01:51:02.289Z,71.00
2022-11-06T01:56:10.150Z,71.04
2022-11-06T02:01:14.185Z,71.01
2022-11-06T02:06:17.710Z,71.23
2022-11-06T02:11:21.626Z,71.13
2022-11-06T02:16:51.117Z,71.17
2022-11-06T02:22:25.597Z,71.19
2022-11-06T02:27:29.967Z,71.18
2022-11-06T02:32:42.486Z,71.42
2022-11-06T02:37:50.274Z,71.45
2022-11-06T02:42:57.273Z,71.31
2022-11-06T02:48:03.168Z,71.27
2022-11-06T02:53:09.763Z,71.26
2022-11-06T02:58:22.018Z,71.20
2022-11-06T03:03:29.393Z,71.04
2022-11-06T03:08:53.341Z,70.83
2022-11-06T03:14:29.849Z,70.14
2022-11-06T03:19:42.945Z,69.49
2022-11-06T03:25:20.719Z,69.00
2022-11-06T03:30:28.054Z,68.33
2022-11-06T03:35:44.238Z,67.33
2022-11-06T03:40:55.624Z,66.68
2022-11-06T03:46:02.439Z,66.07
2022-11-06T03:51:32.590Z,65.90
2022-11-06T03:56:49.271Z,65.50
2022-11-06T04:01:57.310Z,64.87
2022-11-06T04:07:06.257Z,64.35
2022-11-06T04:12:13.771Z,64.03
2022-11-06T04:17:17.928Z,63.35
2022-11-06T04:22:39.322Z,62.80
2022-11-06T04:27:52.027Z,61.96
2022-11-06T04:33:20.659Z,61.76
2022-11-06T04:38:48.461Z,61.18
2022-11-06T04:43:58.652Z,60.02
2022-11-06T04:49:05.661Z,59.49
2022-11-06T04:54:10.367Z,59.10
2022-11-06T04:59:17.139Z,58.50
2022-11-06T05:04:20.838Z,58.05
2022-11-06T05:09:24.795Z,57.34
2022-11-06T05:14:28.175Z,56.98
2022-11-06T05:19:32.764Z,56.23
2022-11-06T05:24:36.713Z,55.95
2022-11-06T05:29:40.045Z,55.34
2022-11-06T05:34:43.434Z,54.27
2022-11-06T05:39:46.891Z,53.25
2022-11-06T05:44:50.743Z,52.26
2022-11-06T05:49:54.669Z,50.88
2022-11-06T05:54:58.683Z,50.59
2022-11-06T06:00:05.451Z,49.48
2022-11-06T06:05:15.887Z,49.00
2022-11-06T06:15:22.286Z,47.83
2022-11-06T06:20:25.804Z,46.99
2022-11-06T06:25:30.663Z,46.42
2022-11-06T06:30:34.082Z,45.96
2022-11-06T06:35:37.338Z,44.53
2022-11-06T06:40:40.644Z,44.37
2022-11-06T06:45:43.922Z,44.26
2022-11-06T06:50:47.296Z,43.53
2022-11-06T06:55:50.868Z,43.10
2022-11-06T07:00:54.524Z,42.55
2022-11-06T07:05:59.166Z,42.48
2022-11-06T07:11:05.488Z,42.48
2022-11-06T07:16:11.267Z,42.41
2022-11-06T07:21:14.751Z,42.25
2022-11-06T07:26:18.111Z,41.91
2022-11-06T07:31:21.543Z,41.88
2022-11-06T07:36:24.911Z,41.33
2022-11-06T07:41:28.053Z,41.08
2022-11-06T07:46:31.240Z,40.94
2022-11-06T07:51:34.974Z,40.93
2022-11-06T07:56:38.729Z,40.75
2022-11-06T08:01:42.338Z,40.12
2022-11-06T08:06:45.673Z,40.18
2022-11-06T08:11:49.042Z,39.83
2022-11-06T08:16:52.363Z,39.44
2022-11-06T08:21:56.621Z,39.62
2022-11-06T08:27:07.450Z,39.16
2022-11-06T08:32:11.415Z,39.00
2022-11-06T08:37:14.705Z,38.98
2022-11-06T08:42:18.005Z,38.74
2022-11-06T08:47:21.399Z,38.54
2022-11-06T08:52:31.218Z,38.69
2022-11-06T08:57:40.860Z,38.28
2022-11-06T09:02:44.080Z,38.26
2022-11-06T09:07:47.561Z,37.94
2022-11-06T09:12:50.865Z,38.04
2022-11-06T09:17:54.996Z,37.95
2022-11-06T09:23:03.956Z,37.61
2022-11-06T09:28:07.236Z,37.58
2022-11-06T09:33:13.453Z,37.22
2022-11-06T09:38:17.607Z,37.04
2022-11-06T09:44:09.485Z,37.09
2022-11-06T09:49:18.373Z,37.23
2022-11-06T09:54:45.880Z,38.32
2022-11-06T09:59:51.335Z,39.38
2022-11-06T10:05:08.427Z,39.93
2022-11-06T10:10:17.012Z,40.55
2022-11-06T10:15:28.907Z,40.84
2022-11-06T10:20:40.276Z,41.19
2022-11-06T10:25:45.951Z,41.39
2022-11-06T10:31:08.898Z,41.65
2022-11-06T10:36:24.898Z,42.37
2022-11-06T10:41:34.030Z,42.62
2022-11-06T10:46:39.614Z,42.97
2022-11-06T10:52:08.204Z,43.94
2022-11-06T10:57:17.562Z,44.91
2022-11-06T11:02:30.519Z,45.49
2022-11-06T11:07:34.699Z,45.54
2022-11-06T11:12:38.008Z,46.44
2022-11-06T11:17:42.807Z,47.35
2022-11-06T11:22:46.199Z,47.90
2022-11-06T11:27:49.718Z,48.45
2022-11-06T11:32:54.436Z,49.11
2022-11-06T11:38:27.067Z,49.51
2022-11-06T11:43:30.846Z,49.53
2022-11-06T11:48:51.847Z,49.74
2022-11-06T11:53:59.906Z,50.60
2022-11-06T11:59:04.110Z,50.40
2022-11-06T12:04:26.045Z,50.33
2022-11-06T12:09:33.766Z,50.45
2022-11-06T12:14:37.803Z,50.22
2022-11-06T12:19:45.538Z,50.20
2022-11-06T12:25:11.847Z,50.31
2022-11-06T12:30:18.795Z,50.50
2022-11-06T12:35:31.225Z,50.34
2022-11-06T12:40:41.800Z,50.68
2022-11-06T12:46:03.135Z,50.83
2022-11-06T12:51:17.436Z,51.07
2022-11-06T12:56:27.592Z,51.55
2022-11-06T13:01:58.272Z,51.79
2022-11-06T13:07:40.639Z,52.01
2022-11-06T13:13:02.996Z,52.48
2022-11-06T13:18:31.490Z,52.61
2022-11-06T13:23:48.329Z,53.36
2022-11-06T13:28:55.570Z,53.80
2022-11-06T13:34:02.557Z,53.94
2022-11-06T13:39:16.169Z,54.17
2022-11-06T13:44:21.187Z,54.57
2022-11-06T13:49:54.745Z,54.97
2022-11-06T13:55:27.797Z,55.04
2022-11-06T14:00:47.697Z,55.21
2022-11-06T14:06:22.863Z,55.73
2022-11-06T14:11:33.591Z,56.03
2022-11-06T14:16:39.812Z,56.57
2022-11-06T14:22:03.392Z,56.87
2022-11-06T14:27:12.364Z,57.39
2022-11-06T14:32:21.677Z,57.50
2022-11-06T14:37:30.815Z,57.97
2022-11-06T14:42:42.246Z,58.14
2022-11-06T14:47:54.427Z,58.20
2022-11-06T14:53:01.190Z,58.40
2022-11-06T14:58:31.420Z,58.69
2022-11-06T15:03:55.260Z,58.89
2022-11-06T15:09:08.252Z,59.22
2022-11-06T15:14:11.512Z,59.59
2022-11-06T15:19:16.330Z,59.66
2022-11-06T15:24:29.647Z,59.96
2022-11-06T15:29:37.029Z,60.04
2022-11-06T15:34:43.917Z,60.29
2022-11-06T15:40:00.924Z,60.48
2022-11-06T15:45:15.225Z,60.81
2022-11-06T15:50:30.668Z,61.06
2022-11-06T15:55:37.105Z,61.40
2022-11-06T16:00:42.084Z,61.68
2022-11-06T16:05:46.825Z,61.93
2022-11-06T16:10:50.829Z,62.06
2022-11-06T16:16:02.568Z,62.47
2022-11-06T16:21:18.885Z,62.86
2022-11-06T16:26:27.223Z,62.61
2022-11-06T16:31:31.738Z,63.24
2022-11-06T16:37:02.863Z,63.00
2022-11-06T16:42:12.178Z,63.20
2022-11-06T16:47:22.947Z,63.06
2022-11-06T16:52:34.981Z,63.13
2022-11-06T16:57:51.060Z,62.77
2022-11-06T17:03:09.245Z,62.72
2022-11-06T17:08:36.741Z,62.51
2022-11-06T17:13:46.134Z,62.72
2022-11-06T17:18:49.629Z,62.98
2022-11-06T17:23:53.945Z,63.35
2022-11-06T17:28:58.625Z,63.93
2022-11-06T17:34:02.062Z,64.01
2022-11-06T17:39:05.809Z,64.56
2022-11-06T17:44:11.389Z,64.53
2022-11-06T17:49:17.982Z,64.76
2022-11-06T17:54:24.295Z,64.90
2022-11-06T17:59:29.833Z,64.92
2022-11-06T18:04:39.250Z,65.29
2022-11-06T18:09:42.941Z,65.39
2022-11-06T18:14:46.543Z,65.51
2022-11-06T18:19:50.203Z,65.80
2022-11-06T18:24:53.593Z,65.89
2022-11-06T18:29:57.781Z,65.89
2022-11-06T18:35:04.726Z,66.11
2022-11-06T18:40:08.974Z,66.13
2022-11-06T18:45:12.411Z,66.08
2022-11-06T18:50:15.920Z,66.29
2022-11-06T18:55:19.313Z,66.14
2022-11-06T19:00:23.375Z,66.22
2022-11-06T19:05:27.470Z,66.51
2022-11-06T19:10:30.865Z,66.48
2022-11-06T19:15:34.191Z,66.59
2022-11-06T19:20:42.478Z,66.71
2022-11-06T19:25:50.831Z,66.89
2022-11-06T19:31:02.558Z,67.25
2022-11-06T19:36:06.674Z,67.30
2022-11-06T19:41:09.933Z,67.46
2022-11-06T19:46:13.220Z,67.18
2022-11-06T19:51:17.261Z,67.27
2022-11-06T19:56:20.710Z,67.28
2022-11-06T20:01:24.105Z,67.37
2022-11-06T20:06:27.462Z,67.27
2022-11-06T20:11:30.655Z,67.26
2022-11-06T20:16:34.211Z,67.22
2022-11-06T20:21:37.583Z,67.39
2022-11-06T20:26:41.641Z,67.51
2022-11-06T20:31:45.271Z,67.67
2022-11-06T20:36:48.520Z,67.73
2022-11-06T20:41:52.663Z,67.88
2022-11-06T20:46:56.413Z,67.80
2022-11-06T20:52:13.805Z,67.89
2022-11-06T20:57:17.970Z,68.12
2022-11-06T21:02:21.591Z,68.12
2022-11-06T21:07:27.586Z,68.19
2022-11-06T21:12:35.666Z,68.25
2022-11-06T21:17:42.612Z,68.85
2022-11-06T21:22:45.884Z,68.76
2022-11-06T21:27:49.358Z,68.63
2022-11-06T21:32:52.720Z,68.92
2022-11-06T21:37:56.008Z,69.01
2022-11-06T21:42:59.437Z,69.04
2022-11-06T21:48:08.013Z,69.15
2022-11-06T21:53:18.049Z,69.08
2022-11-06T21:58:21.981Z,68.83
2022-11-06T22:03:25.023Z,68.93
2022-11-06T22:08:30.692Z,68.70
2022-11-06T22:13:33.925Z,68.71
2022-11-06T22:18:37.901Z,69.06
2022-11-06T22:23:41.554Z,68.97
2022-11-06T22:28:45.613Z,68.69
2022-11-06T22:33:53.731Z,68.62
2022-11-06T22:39:08.587Z,68.69
2022-11-06T22:44:12.343Z,68.51
2022-11-06T22:49:15.911Z,68.57
2022-11-06T22:54:20.381Z,68.93
2022-11-06T22:59:23.957Z,68.67
2022-11-06T23:04:27.660Z,68.80
2022-11-06T23:09:31.226Z,68.84
2022-11-06T23:14:34.602Z,68.77
2022-11-06T23:19:38.294Z,68.87
2022-11-06T23:24:42.074Z,68.80
2022-11-06T23:29:45.159Z,68.76
2022-11-06T23:34:48.392Z,68.53
2022-11-06T23:39:52.824Z,68.56
2022-11-06T23:44:56.240Z,68.63
2022-11-06T23:50:00.021Z,68.61
2022-11-06T23:55:04.076Z,68.36
